sensor_id;sensor_type;location;lat;lon;timestamp;pressure;altitude;pressure_sealevel;temperature;humidity
54270;BME280;40181;51.560;13.000;2023-04-29T00:01:22;100087.09;;;11.82;96.56
54270;BME280;40181;51.560;13.000;2023-04-29T00:03:51;100080.94;;;11.79;97.48
54270;BME280;40181;51.560;13.000;2023-04-29T00:06:20;100086.19;;;11.74;97.06
54270;BME280;40181;51.560;13.000;2023-04-29T00:08:52;100080.09;;;11.75;97.14
54270;BME280;40181;51.560;13.000;2023-04-29T00:11:21;100070.41;;;11.75;97.19
54270;BME280;40181;51.560;13.000;2023-04-29T00:13:50;100077.47;;;11.80;97.56
54270;BME280;40181;51.560;13.000;2023-04-29T00:16:20;100066.03;;;11.74;97.54
54270;BME280;40181;51.560;13.000;2023-04-29T00:18:49;100067.78;;;11.75;98.13
54270;BME280;40181;51.560;13.000;2023-04-29T00:21:18;100074.78;;;11.56;100.00
54270;BME280;40181;51.560;13.000;2023-04-29T00:23:47;100071.28;;;11.59;99.78
54270;BME280;40181;51.560;13.000;2023-04-29T00:26:19;100066.84;;;11.31;100.00
54270;BME280;40181;51.560;13.000;2023-04-29T00:28:48;100071.28;;;11.51;100.00
54270;BME280;40181;51.560;13.000;2023-04-29T00:31:17;100069.53;;;11.58;100.00
54270;BME280;40181;51.560;13.000;2023-04-29T00:33:46;100074.78;;;11.59;100.00
54270;BME280;40181;51.560;13.000;2023-04-29T00:36:15;100072.13;;;11.42;100.00
54270;BME280;40181;51.560;13.000;2023-04-29T00:38:44;100074.75;;;11.39;100.00
54270;BME280;40181;51.560;13.000;2023-04-29T00:41:13;100083.56;;;11.54;100.00
54270;BME280;40181;51.560;13.000;2023-04-29T00:43:45;100084.38;;;11.34;100.00
54270;BME280;40181;51.560;13.000;2023-04-29T00:46:14;100077.34;;;11.22;100.00
54270;BME280;40181;51.560;13.000;2023-04-29T00:48:43;100081.69;;;11.20;100.00
54270;BME280;40181;51.560;13.000;2023-04-29T00:51:12;100083.47;;;11.24;100.00
54270;BME280;40181;51.560;13.000;2023-04-29T00:53:44;100085.22;;;11.28;100.00
54270;BME280;40181;51.560;13.000;2023-04-29T00:56:13;100088.75;;;11.27;100.00
54270;BME280;40181;51.560;13.000;2023-04-29T00:58:47;100089.53;;;11.03;100.00
54270;BME280;40181;51.560;13.000;2023-04-29T01:01:18;100080.78;;;11.12;100.00
54270;BME280;40181;51.560;13.000;2023-04-29T01:03:47;100086.06;;;11.12;100.00
54270;BME280;40181;51.560;13.000;2023-04-29T01:06:25;100084.22;;;10.87;100.00
54270;BME280;40181;51.560;13.000;2023-04-29T01:09:08;100072.72;;;10.63;100.00
54270;BME280;40181;51.560;13.000;2023-04-29T01:11:52;100087.78;;;11.00;100.00
54270;BME280;40181;51.560;13.000;2023-04-29T01:14:31;100074.66;;;11.02;100.00
54270;BME280;40181;51.560;13.000;2023-04-29T01:17:05;100083.34;;;10.93;100.00
54270;BME280;40181;51.560;13.000;2023-04-29T01:19:43;100084.34;;;11.17;100.00
54270;BME280;40181;51.560;13.000;2023-04-29T01:22:14;100091.31;;;11.05;100.00
54270;BME280;40181;51.560;13.000;2023-04-29T01:24:48;100086.03;;;11.07;100.00
54270;BME280;40181;51.560;13.000;2023-04-29T01:27:27;100084.22;;;10.81;100.00
54270;BME280;40181;51.560;13.000;2023-04-29T01:30:01;100081.63;;;10.98;100.00
54270;BME280;40181;51.560;13.000;2023-04-29T01:32:45;100094.78;;;11.01;100.00
54270;BME280;40181;51.560;13.000;2023-04-29T01:35:32;100103.50;;;10.91;100.00
54270;BME280;40181;51.560;13.000;2023-04-29T01:38:19;100095.69;;;11.10;100.00
54270;BME280;40181;51.560;13.000;2023-04-29T01:41:03;100097.41;;;10.98;100.00
54270;BME280;40181;51.560;13.000;2023-04-29T01:43:38;100094.75;;;10.90;100.00
54270;BME280;40181;51.560;13.000;2023-04-29T01:46:09;100099.91;;;10.73;100.00
54270;BME280;40181;51.560;13.000;2023-04-29T01:48:39;100092.06;;;10.76;100.00
54270;BME280;40181;51.560;13.000;2023-04-29T01:51:08;100099.00;;;10.67;100.00
54270;BME280;40181;51.560;13.000;2023-04-29T01:53:37;100090.25;;;10.71;100.00
54270;BME280;40181;51.560;13.000;2023-04-29T01:56:10;100095.50;;;10.66;100.00
54270;BME280;40181;51.560;13.000;2023-04-29T01:58:39;100102.56;;;10.78;100.00
54270;BME280;40181;51.560;13.000;2023-04-29T02:01:08;100098.13;;;10.71;100.00
54270;BME280;40181;51.560;13.000;2023-04-29T02:03:38;100095.56;;;10.82;100.00
54270;BME280;40181;51.560;13.000;2023-04-29T02:06:07;100101.66;;;10.74;100.00
54270;BME280;40181;51.560;13.000;2023-04-29T02:08:36;100094.75;;;10.86;100.00
54270;BME280;40181;51.560;13.000;2023-04-29T02:11:05;100103.47;;;10.85;100.00
54270;BME280;40181;51.560;13.000;2023-04-29T02:13:37;100111.38;;;10.89;100.00
54270;BME280;40181;51.560;13.000;2023-04-29T02:16:07;100112.28;;;10.96;100.00
54270;BME280;40181;51.560;13.000;2023-04-29T02:18:36;100109.53;;;10.71;100.00
54270;BME280;40181;51.560;13.000;2023-04-29T02:21:06;100105.13;;;10.69;100.00
54270;BME280;40181;51.560;13.000;2023-04-29T02:23:36;100113.06;;;10.75;100.00
54270;BME280;40181;51.560;13.000;2023-04-29T02:26:05;100100.91;;;10.92;100.00
54270;BME280;40181;51.560;13.000;2023-04-29T02:28:37;100108.78;;;10.96;100.00
54270;BME280;40181;51.560;13.000;2023-04-29T02:31:06;100103.53;;;10.92;100.00
54270;BME280;40181;51.560;13.000;2023-04-29T02:33:35;100095.63;;;10.92;100.00
54270;BME280;40181;51.560;13.000;2023-04-29T02:36:05;100100.91;;;10.92;100.00
54270;BME280;40181;51.560;13.000;2023-04-29T02:38:34;100107.94;;;11.03;100.00
54270;BME280;40181;51.560;13.000;2023-04-29T02:41:04;100115.75;;;10.86;100.00
54270;BME280;40181;51.560;13.000;2023-04-29T02:43:33;100109.69;;;11.02;100.00
54270;BME280;40181;51.560;13.000;2023-04-29T02:46:05;100103.53;;;10.94;100.00
54270;BME280;40181;51.560;13.000;2023-04-29T02:48:34;100104.34;;;10.85;100.00
54270;BME280;40181;51.560;13.000;2023-04-29T02:51:03;100109.69;;;11.04;100.00
54270;BME280;40181;51.560;13.000;2023-04-29T02:53:32;100111.44;;;10.99;100.00
54270;BME280;40181;51.560;13.000;2023-04-29T02:56:02;100104.41;;;10.98;100.00
54270;BME280;40181;51.560;13.000;2023-04-29T02:58:32;100102.66;;;10.90;100.00
54270;BME280;40181;51.560;13.000;2023-04-29T03:01:01;100107.94;;;11.03;100.00
54270;BME280;40181;51.560;13.000;2023-04-29T03:03:32;100114.03;;;10.96;100.00
54270;BME280;40181;51.560;13.000;2023-04-29T03:06:02;100115.72;;;10.83;100.00
54270;BME280;40181;51.560;13.000;2023-04-29T03:08:31;100112.31;;;11.01;100.00
54270;BME280;40181;51.560;13.000;2023-04-29T03:11:00;100105.28;;;10.98;100.00
54270;BME280;40181;51.560;13.000;2023-04-29T03:13:29;100107.94;;;11.01;100.00
54270;BME280;40181;51.560;13.000;2023-04-29T03:15:58;100104.41;;;10.99;100.00
54270;BME280;40181;51.560;13.000;2023-04-29T03:18:27;100113.09;;;10.83;100.00
54270;BME280;40181;51.560;13.000;2023-04-29T03:20:59;100106.13;;;10.88;100.00
54270;BME280;40181;51.560;13.000;2023-04-29T03:23:29;100107.06;;;11.07;100.00
54270;BME280;40181;51.560;13.000;2023-04-29T03:25:58;100095.69;;;11.03;100.00
54270;BME280;40181;51.560;13.000;2023-04-29T03:28:27;100109.66;;;10.98;100.00
54270;BME280;40181;51.560;13.000;2023-04-29T03:30:56;100101.78;;;10.98;100.00
54270;BME280;40181;51.560;13.000;2023-04-29T03:33:25;100108.81;;;11.05;100.00
54270;BME280;40181;51.560;13.000;2023-04-29T03:35:54;100113.22;;;11.11;100.00
54270;BME280;40181;51.560;13.000;2023-04-29T03:38:26;100108.88;;;11.16;100.00
54270;BME280;40181;51.560;13.000;2023-04-29T03:40:55;100106.16;;;10.94;100.00
54270;BME280;40181;51.560;13.000;2023-04-29T03:43:25;100113.25;;;11.17;100.00
54270;BME280;40181;51.560;13.000;2023-04-29T03:45:54;100101.84;;;11.13;100.00
54270;BME280;40181;51.560;13.000;2023-04-29T03:48:23;100093.91;;;11.07;100.00
54270;BME280;40181;51.560;13.000;2023-04-29T03:50:52;100093.94;;;11.16;100.00
54270;BME280;40181;51.560;13.000;2023-04-29T03:53:21;100095.59;;;10.89;100.00
54270;BME280;40181;51.560;13.000;2023-04-29T03:55:53;100096.50;;;10.87;100.00
54270;BME280;40181;51.560;13.000;2023-04-29T03:58:22;100097.38;;;10.97;100.00
54270;BME280;40181;51.560;13.000;2023-04-29T04:00:51;100115.00;;;11.10;100.00
54270;BME280;40181;51.560;13.000;2023-04-29T04:03:21;100106.09;;;10.89;100.00
54270;BME280;40181;51.560;13.000;2023-04-29T04:05:51;100105.31;;;11.00;100.00
54270;BME280;40181;51.560;13.000;2023-04-29T04:08:21;100107.03;;;10.98;100.00
54270;BME280;40181;51.560;13.000;2023-04-29T04:10:52;100115.00;;;11.13;100.00
54270;BME280;40181;51.560;13.000;2023-04-29T04:13:27;100108.84;;;11.03;100.00
54270;BME280;40181;51.560;13.000;2023-04-29T04:15:56;100116.69;;;11.05;100.00
54270;BME280;40181;51.560;13.000;2023-04-29T04:18:25;100109.72;;;11.05;100.00
54270;BME280;40181;51.560;13.000;2023-04-29T04:20:54;100115.91;;;11.23;100.00
54270;BME280;40181;51.560;13.000;2023-04-29T04:23:23;100118.47;;;11.07;100.00
54270;BME280;40181;51.560;13.000;2023-04-29T04:25:55;100121.09;;;11.06;100.00
54270;BME280;40181;51.560;13.000;2023-04-29T04:28:24;100129.88;;;11.11;100.00
54270;BME280;40181;51.560;13.000;2023-04-29T04:30:53;100125.47;;;11.12;100.00
54270;BME280;40181;51.560;13.000;2023-04-29T04:33:23;100128.97;;;11.06;100.00
54270;BME280;40181;51.560;13.000;2023-04-29T04:35:52;100125.47;;;11.05;100.00
54270;BME280;40181;51.560;13.000;2023-04-29T04:38:21;100122.84;;;11.12;100.00
54270;BME280;40181;51.560;13.000;2023-04-29T04:40:52;100117.66;;;11.24;100.00
54270;BME280;40181;51.560;13.000;2023-04-29T04:43:23;100137.69;;;10.96;100.00
54270;BME280;40181;51.560;13.000;2023-04-29T04:45:52;100124.63;;;11.11;100.00
54270;BME280;40181;51.560;13.000;2023-04-29T04:48:21;100143.94;;;11.19;100.00
54270;BME280;40181;51.560;13.000;2023-04-29T04:50:50;100133.47;;;11.29;100.00
54270;BME280;40181;51.560;13.000;2023-04-29T04:53:19;100124.56;;;11.00;100.00
54270;BME280;40181;51.560;13.000;2023-04-29T04:55:49;100129.88;;;11.10;100.00
54270;BME280;40181;51.560;13.000;2023-04-29T04:58:20;100129.91;;;11.19;100.00
54270;BME280;40181;51.560;13.000;2023-04-29T05:00:51;100128.13;;;11.09;100.00
54270;BME280;40181;51.560;13.000;2023-04-29T05:03:20;100134.31;;;11.18;100.00
54270;BME280;40181;51.560;13.000;2023-04-29T05:05:52;100137.78;;;11.08;100.00
54270;BME280;40181;51.560;13.000;2023-04-29T05:08:21;100138.69;;;11.23;100.00
54270;BME280;40181;51.560;13.000;2023-04-29T05:10:51;100131.59;;;11.06;100.00
54270;BME280;40181;51.560;13.000;2023-04-29T05:13:22;100139.56;;;11.18;100.00
54270;BME280;40181;51.560;13.000;2023-04-29T05:15:52;100137.81;;;11.25;100.00
54270;BME280;40181;51.560;13.000;2023-04-29T05:18:21;100140.41;;;11.16;100.00
54270;BME280;40181;51.560;13.000;2023-04-29T05:20:50;100135.22;;;11.30;100.00
54270;BME280;40181;51.560;13.000;2023-04-29T05:23:19;100153.59;;;11.25;100.00
54270;BME280;40181;51.560;13.000;2023-04-29T05:25:49;100150.91;;;11.10;100.00
54270;BME280;40181;51.560;13.000;2023-04-29T05:28:18;100160.66;;;11.35;100.00
54270;BME280;40181;51.560;13.000;2023-04-29T05:30:52;100151.00;;;11.31;100.00
54270;BME280;40181;51.560;13.000;2023-04-29T05:33:21;100156.28;;;11.42;100.00
54270;BME280;40181;51.560;13.000;2023-04-29T05:35:50;100151.00;;;11.33;100.00
54270;BME280;40181;51.560;13.000;2023-04-29T05:38:19;100161.53;;;11.36;100.00
54270;BME280;40181;51.560;13.000;2023-04-29T05:40:53;100163.34;;;11.48;100.00
54270;BME280;40181;51.560;13.000;2023-04-29T05:43:22;100165.94;;;11.43;100.00
54270;BME280;40181;51.560;13.000;2023-04-29T05:45:54;100163.31;;;11.45;100.00
54270;BME280;40181;51.560;13.000;2023-04-29T05:48:23;100174.75;;;11.62;100.00
54270;BME280;40181;51.560;13.000;2023-04-29T05:50:53;100167.78;;;11.68;100.00
54270;BME280;40181;51.560;13.000;2023-04-29T05:53:22;100169.56;;;11.78;100.00
54270;BME280;40181;51.560;13.000;2023-04-29T05:55:51;100176.56;;;11.77;100.00
54270;BME280;40181;51.560;13.000;2023-04-29T05:58:20;100180.91;;;11.61;100.00
54270;BME280;40181;51.560;13.000;2023-04-29T06:00:50;100182.72;;;11.81;100.00
54270;BME280;40181;51.560;13.000;2023-04-29T06:03:21;100177.44;;;11.76;100.00
54270;BME280;40181;51.560;13.000;2023-04-29T06:05:50;100189.75;;;11.81;100.00
54270;BME280;40181;51.560;13.000;2023-04-29T06:08:20;100180.09;;;11.92;100.00
54270;BME280;40181;51.560;13.000;2023-04-29T06:10:49;100187.13;;;11.93;100.00
54270;BME280;40181;51.560;13.000;2023-04-29T06:13:18;100182.72;;;11.86;100.00
54270;BME280;40181;51.560;13.000;2023-04-29T06:15:48;100188.00;;;11.92;100.00
54270;BME280;40181;51.560;13.000;2023-04-29T06:18:17;100198.53;;;11.92;100.00
54270;BME280;40181;51.560;13.000;2023-04-29T06:20:48;100191.50;;;12.02;100.00
54270;BME280;40181;51.560;13.000;2023-04-29T06:23:17;100204.66;;;11.97;100.00
54270;BME280;40181;51.560;13.000;2023-04-29T06:25:46;100191.53;;;11.96;100.00
54270;BME280;40181;51.560;13.000;2023-04-29T06:28:15;100205.53;;;11.85;100.00
54270;BME280;40181;51.560;13.000;2023-04-29T06:30:45;100207.31;;;11.94;100.00
54270;BME280;40181;51.560;13.000;2023-04-29T06:33:14;100216.06;;;11.96;100.00
54270;BME280;40181;51.560;13.000;2023-04-29T06:35:43;100217.84;;;11.91;100.00
54270;BME280;40181;51.560;13.000;2023-04-29T06:38:15;100217.84;;;11.96;100.00
54270;BME280;40181;51.560;13.000;2023-04-29T06:40:44;100215.22;;;11.99;100.00
54270;BME280;40181;51.560;13.000;2023-04-29T06:43:13;100213.50;;;12.02;100.00
54270;BME280;40181;51.560;13.000;2023-04-29T06:45:44;100212.56;;;11.99;100.00
54270;BME280;40181;51.560;13.000;2023-04-29T06:48:13;100225.72;;;11.97;100.00
54270;BME280;40181;51.560;13.000;2023-04-29T06:50:48;100216.16;;;12.13;100.00
54270;BME280;40181;51.560;13.000;2023-04-29T06:53:20;100227.50;;;11.98;100.00
54270;BME280;40181;51.560;13.000;2023-04-29T06:55:50;100223.09;;;11.91;100.00
54270;BME280;40181;51.560;13.000;2023-04-29T06:58:19;100231.88;;;11.95;100.00
54270;BME280;40181;51.560;13.000;2023-04-29T07:00:49;100218.75;;;12.06;100.00
54270;BME280;40181;51.560;13.000;2023-04-29T07:03:18;100233.63;;;11.97;100.00
54270;BME280;40181;51.560;13.000;2023-04-29T07:05:47;100230.13;;;11.92;100.00
54270;BME280;40181;51.560;13.000;2023-04-29T07:08:16;100216.94;;;11.95;100.00
54270;BME280;40181;51.560;13.000;2023-04-29T07:10:53;100223.97;;;12.01;100.00
54270;BME280;40181;51.560;13.000;2023-04-29T07:13:22;100223.19;;;12.14;100.00
54270;BME280;40181;51.560;13.000;2023-04-29T07:15:52;100216.13;;;12.07;100.00
54270;BME280;40181;51.560;13.000;2023-04-29T07:18:21;100227.56;;;12.18;100.00
54270;BME280;40181;51.560;13.000;2023-04-29T07:20:50;100229.31;;;12.16;100.00
54270;BME280;40181;51.560;13.000;2023-04-29T07:23:22;100224.06;;;12.13;100.00
54270;BME280;40181;51.560;13.000;2023-04-29T07:25:51;100225.81;;;12.22;100.00
54270;BME280;40181;51.560;13.000;2023-04-29T07:28:20;100239.84;;;12.12;100.00
54270;BME280;40181;51.560;13.000;2023-04-29T07:30:50;100241.59;;;12.22;100.00
54270;BME280;40181;51.560;13.000;2023-04-29T07:33:19;100243.38;;;12.26;100.00
54270;BME280;40181;51.560;13.000;2023-04-29T07:35:48;100241.63;;;12.28;100.00
54270;BME280;40181;51.560;13.000;2023-04-29T07:38:17;100255.66;;;12.21;100.00
54270;BME280;40181;51.560;13.000;2023-04-29T07:40:49;100246.91;;;12.35;100.00
54270;BME280;40181;51.560;13.000;2023-04-29T07:43:18;100255.66;;;12.29;100.00
54270;BME280;40181;51.560;13.000;2023-04-29T07:45:47;100261.78;;;12.18;100.00
54270;BME280;40181;51.560;13.000;2023-04-29T07:48:16;100270.56;;;12.07;100.00
54270;BME280;40181;51.560;13.000;2023-04-29T07:50:46;100281.91;;;11.98;100.00
54270;BME280;40181;51.560;13.000;2023-04-29T07:53:15;100269.63;;;11.98;100.00
54270;BME280;40181;51.560;13.000;2023-04-29T07:55:44;100281.91;;;12.01;100.00
54270;BME280;40181;51.560;13.000;2023-04-29T07:58:16;100282.84;;;12.06;100.00
54270;BME280;40181;51.560;13.000;2023-04-29T08:00:45;100286.25;;;11.85;100.00
54270;BME280;40181;51.560;13.000;2023-04-29T08:03:14;100286.38;;;12.07;100.00
54270;BME280;40181;51.560;13.000;2023-04-29T08:05:43;100294.22;;;12.03;100.00
54270;BME280;40181;51.560;13.000;2023-04-29T08:08:12;100286.38;;;12.11;100.00
54270;BME280;40181;51.560;13.000;2023-04-29T08:10:41;100302.19;;;12.14;100.00
54270;BME280;40181;51.560;13.000;2023-04-29T08:13:10;100304.69;;;11.94;100.00
54270;BME280;40181;51.560;13.000;2023-04-29T08:15:42;100298.56;;;12.00;100.00
54270;BME280;40181;51.560;13.000;2023-04-29T08:18:11;100306.53;;;12.04;100.00
54270;BME280;40181;51.560;13.000;2023-04-29T08:20:41;100298.56;;;11.94;100.00
54270;BME280;40181;51.560;13.000;2023-04-29T08:23:10;100313.47;;;11.96;100.00
54270;BME280;40181;51.560;13.000;2023-04-29T08:25:40;100323.09;;;11.82;100.00
54270;BME280;40181;51.560;13.000;2023-04-29T08:28:10;100326.56;;;11.77;100.00
54270;BME280;40181;51.560;13.000;2023-04-29T08:30:41;100331.03;;;11.91;100.00
54270;BME280;40181;51.560;13.000;2023-04-29T08:33:11;100335.34;;;11.81;100.00
54270;BME280;40181;51.560;13.000;2023-04-29T08:35:41;100334.50;;;11.88;100.00
54270;BME280;40181;51.560;13.000;2023-04-29T08:38:10;100330.16;;;11.92;100.00
54270;BME280;40181;51.560;13.000;2023-04-29T08:40:41;100334.56;;;12.01;100.00
54270;BME280;40181;51.560;13.000;2023-04-29T08:43:13;100338.13;;;12.06;100.00
54270;BME280;40181;51.560;13.000;2023-04-29T08:45:46;100349.44;;;11.91;100.00
54270;BME280;40181;51.560;13.000;2023-04-29T08:48:16;100348.66;;;12.06;100.00
54270;BME280;40181;51.560;13.000;2023-04-29T08:50:46;100357.34;;;11.97;100.00
54270;BME280;40181;51.560;13.000;2023-04-29T08:53:15;100368.72;;;11.84;100.00
54270;BME280;40181;51.560;13.000;2023-04-29T08:55:45;100358.31;;;12.02;100.00
54270;BME280;40181;51.560;13.000;2023-04-29T08:58:14;100366.13;;;11.96;100.00
54270;BME280;40181;51.560;13.000;2023-04-29T09:00:46;100362.63;;;11.96;100.00
54270;BME280;40181;51.560;13.000;2023-04-29T09:03:20;100366.13;;;11.93;100.00
54270;BME280;40181;51.560;13.000;2023-04-29T09:05:53;100371.47;;;12.10;100.00
54270;BME280;40181;51.560;13.000;2023-04-29T09:08:23;100373.97;;;11.82;100.00
54270;BME280;40181;51.560;13.000;2023-04-29T09:10:53;100377.50;;;11.90;100.00
54270;BME280;40181;51.560;13.000;2023-04-29T09:13:23;100375.66;;;11.68;100.00
54270;BME280;40181;51.560;13.000;2023-04-29T09:15:55;100383.56;;;11.71;100.00
54270;BME280;40181;51.560;13.000;2023-04-29T09:18:41;100392.31;;;11.70;100.00
54270;BME280;40181;51.560;13.000;2023-04-29T09:21:12;100388.00;;;11.83;100.00
54270;BME280;40181;51.560;13.000;2023-04-29T09:23:43;100391.41;;;11.66;100.00
54270;BME280;40181;51.560;13.000;2023-04-29T09:26:13;100390.56;;;11.69;100.00
54270;BME280;40181;51.560;13.000;2023-04-29T09:28:42;100415.19;;;11.77;100.00
54270;BME280;40181;51.560;13.000;2023-04-29T09:31:14;100412.47;;;11.66;100.00
54270;BME280;40181;51.560;13.000;2023-04-29T09:33:54;100422.06;;;11.61;100.00
54270;BME280;40181;51.560;13.000;2023-04-29T09:36:40;100414.13;;;11.52;100.00
54270;BME280;40181;51.560;13.000;2023-04-29T09:39:13;100431.66;;;11.49;100.00
54270;BME280;40181;51.560;13.000;2023-04-29T09:41:59;100422.84;;;11.43;100.00
54270;BME280;40181;51.560;13.000;2023-04-29T09:44:32;100435.28;;;11.67;100.00
54270;BME280;40181;51.560;13.000;2023-04-29T09:47:06;100424.72;;;11.62;100.00
54270;BME280;40181;51.560;13.000;2023-04-29T09:49:38;100439.59;;;11.59;100.00
54270;BME280;40181;51.560;13.000;2023-04-29T09:52:12;100435.28;;;11.70;100.00
54270;BME280;40181;51.560;13.000;2023-04-29T09:54:43;100451.03;;;11.62;100.00
54270;BME280;40181;51.560;13.000;2023-04-29T09:57:12;100442.41;;;11.84;100.00
54270;BME280;40181;51.560;13.000;2023-04-29T09:59:43;100452.72;;;11.53;100.00
54270;BME280;40181;51.560;13.000;2023-04-29T10:02:15;100448.38;;;11.58;100.00
54270;BME280;40181;51.560;13.000;2023-04-29T10:04:46;100455.44;;;11.65;100.00
54270;BME280;40181;51.560;13.000;2023-04-29T10:07:21;100453.72;;;11.70;100.00
54270;BME280;40181;51.560;13.000;2023-04-29T10:09:51;100444.78;;;11.46;100.00
54270;BME280;40181;51.560;13.000;2023-04-29T10:12:21;100466.00;;;11.67;100.00
54270;BME280;40181;51.560;13.000;2023-04-29T10:14:56;100482.53;;;11.56;100.00
54270;BME280;40181;51.560;13.000;2023-04-29T10:17:35;100479.03;;;11.54;100.00
54270;BME280;40181;51.560;13.000;2023-04-29T10:20:11;100477.22;;;11.47;100.00
54270;BME280;40181;51.560;13.000;2023-04-29T10:22:45;100486.94;;;11.56;100.00
54270;BME280;40181;51.560;13.000;2023-04-29T10:25:17;100483.50;;;11.65;100.00
54270;BME280;40181;51.560;13.000;2023-04-29T10:27:48;100490.47;;;11.61;100.00
54270;BME280;40181;51.560;13.000;2023-04-29T10:30:19;100490.13;;;11.19;100.00
54270;BME280;40181;51.560;13.000;2023-04-29T10:32:51;100498.84;;;11.15;100.00
54270;BME280;40181;51.560;13.000;2023-04-29T10:35:21;100500.56;;;11.11;100.00
54270;BME280;40181;51.560;13.000;2023-04-29T10:37:50;100498.94;;;11.24;100.00
54270;BME280;40181;51.560;13.000;2023-04-29T10:40:23;100507.47;;;11.00;100.00
54270;BME280;40181;51.560;13.000;2023-04-29T10:42:57;100507.50;;;11.03;100.00
54270;BME280;40181;51.560;13.000;2023-04-29T10:45:28;100516.16;;;10.96;100.00
54270;BME280;40181;51.560;13.000;2023-04-29T10:48:14;100515.53;;;11.20;100.00
54270;BME280;40181;51.560;13.000;2023-04-29T10:51:01;100513.50;;;10.92;100.00
54270;BME280;40181;51.560;13.000;2023-04-29T10:53:31;100517.81;;;10.84;100.00
54270;BME280;40181;51.560;13.000;2023-04-29T10:56:06;100518.56;;;10.74;100.00
54270;BME280;40181;51.560;13.000;2023-04-29T10:58:38;100532.69;;;10.85;100.00
54270;BME280;40181;51.560;13.000;2023-04-29T11:01:10;100534.31;;;10.75;100.00
54270;BME280;40181;51.560;13.000;2023-04-29T11:03:50;100535.25;;;10.79;100.00
54270;BME280;40181;51.560;13.000;2023-04-29T11:06:23;100536.84;;;10.64;100.00
54270;BME280;40181;51.560;13.000;2023-04-29T11:09:00;100533.66;;;10.92;100.00
54270;BME280;40181;51.560;13.000;2023-04-29T11:12:00;100531.00;;;10.89;100.00
54270;BME280;40181;51.560;13.000;2023-04-29T11:14:34;100533.38;;;10.69;100.00
54270;BME280;40181;51.560;13.000;2023-04-29T11:17:07;100545.75;;;10.79;100.00
54270;BME280;40181;51.560;13.000;2023-04-29T11:19:42;100553.34;;;10.56;100.00
54270;BME280;40181;51.560;13.000;2023-04-29T11:22:23;100543.06;;;10.74;100.00
54270;BME280;40181;51.560;13.000;2023-04-29T11:24:55;100549.69;;;10.44;100.00
54270;BME280;40181;51.560;13.000;2023-04-29T11:27:29;100564.38;;;10.31;100.00
54270;BME280;40181;51.560;13.000;2023-04-29T11:30:00;100561.84;;;10.37;100.00
54270;BME280;40181;51.560;13.000;2023-04-29T11:32:32;100562.28;;;10.67;100.00
54270;BME280;40181;51.560;13.000;2023-04-29T11:35:12;100572.66;;;10.59;100.00
54270;BME280;40181;51.560;13.000;2023-04-29T11:37:44;100566.34;;;10.45;100.00
54270;BME280;40181;51.560;13.000;2023-04-29T11:40:14;100572.75;;;10.65;100.00
54270;BME280;40181;51.560;13.000;2023-04-29T11:42:44;100585.84;;;10.64;100.00
54270;BME280;40181;51.560;13.000;2023-04-29T11:45:16;100573.72;;;10.72;100.00
54270;BME280;40181;51.560;13.000;2023-04-29T11:47:47;100573.72;;;10.72;100.00
54270;BME280;40181;51.560;13.000;2023-04-29T11:50:19;100584.94;;;10.59;100.00
54270;BME280;40181;51.560;13.000;2023-04-29T11:52:48;100592.09;;;10.72;100.00
54270;BME280;40181;51.560;13.000;2023-04-29T11:55:18;100587.72;;;10.71;100.00
54270;BME280;40181;51.560;13.000;2023-04-29T11:57:48;100593.75;;;10.62;100.00
54270;BME280;40181;51.560;13.000;2023-04-29T12:00:18;100605.13;;;10.63;100.00
54270;BME280;40181;51.560;13.000;2023-04-29T12:02:47;100594.53;;;10.58;100.00
54270;BME280;40181;51.560;13.000;2023-04-29T12:05:19;100594.78;;;10.77;100.00
54270;BME280;40181;51.560;13.000;2023-04-29T12:07:48;100596.47;;;10.70;100.00
54270;BME280;40181;51.560;13.000;2023-04-29T12:10:17;100611.31;;;10.70;100.00
54270;BME280;40181;51.560;13.000;2023-04-29T12:12:47;100616.44;;;10.60;100.00
54270;BME280;40181;51.560;13.000;2023-04-29T12:15:16;100617.47;;;10.70;100.00
54270;BME280;40181;51.560;13.000;2023-04-29T12:17:45;100609.81;;;10.86;100.00
54270;BME280;40181;51.560;13.000;2023-04-29T12:20:15;100614.22;;;10.90;100.00
54270;BME280;40181;51.560;13.000;2023-04-29T12:22:47;100613.22;;;10.78;100.00
54270;BME280;40181;51.560;13.000;2023-04-29T12:25:16;100613.47;;;11.00;100.00
54270;BME280;40181;51.560;13.000;2023-04-29T12:27:47;100608.22;;;11.00;100.00
54270;BME280;40181;51.560;13.000;2023-04-29T12:30:19;100612.63;;;11.00;100.00
54270;BME280;40181;51.560;13.000;2023-04-29T12:32:50;100603.06;;;11.10;100.00
54270;BME280;40181;51.560;13.000;2023-04-29T12:35:23;100619.47;;;10.87;100.00
54270;BME280;40181;51.560;13.000;2023-04-29T12:37:52;100627.47;;;10.96;100.00
54270;BME280;40181;51.560;13.000;2023-04-29T12:40:21;100615.34;;;11.11;100.00
54270;BME280;40181;51.560;13.000;2023-04-29T12:42:52;100611.91;;;11.15;100.00
54270;BME280;40181;51.560;13.000;2023-04-29T12:45:26;100625.16;;;11.24;100.00
54270;BME280;40181;51.560;13.000;2023-04-29T12:48:00;100624.16;;;11.13;99.78
54270;BME280;40181;51.560;13.000;2023-04-29T12:50:33;100630.59;;;11.38;99.00